sensor_id;sensor_type;location;lat;lon;timestamp;P1;durP1;ratioP1;P2;durP2;ratioP2
3000;SDS011;1510;51.072;6.678;2023-08-31T00:00:44;439.53;;;416.23;;
3000;SDS011;1510;51.072;6.678;2023-08-31T00:03:13;512.17;;;483.57;;
3000;SDS011;1510;51.072;6.678;2023-08-31T00:05:40;537.60;;;507.97;;
3000;SDS011;1510;51.072;6.678;2023-08-31T00:08:08;556.80;;;526.13;;
3000;SDS011;1510;51.072;6.678;2023-08-31T00:10:36;583.20;;;550.00;;
3000;SDS011;1510;51.072;6.678;2023-08-31T00:13:04;605.20;;;567.47;;
3000;SDS011;1510;51.072;6.678;2023-08-31T00:15:32;618.50;;;579.50;;
3000;SDS011;1510;51.072;6.678;2023-08-31T00:18:00;591.27;;;554.83;;
3000;SDS011;1510;51.072;6.678;2023-08-31T00:20:30;574.40;;;538.70;;
3000;SDS011;1510;51.072;6.678;2023-08-31T00:22:58;563.33;;;528.70;;
3000;SDS011;1510;51.072;6.678;2023-08-31T00:25:25;598.30;;;561.63;;
3000;SDS011;1510;51.072;6.678;2023-08-31T00:27:53;587.30;;;552.57;;
3000;SDS011;1510;51.072;6.678;2023-08-31T00:30:21;585.50;;;551.47;;
3000;SDS011;1510;51.072;6.678;2023-08-31T00:32:51;655.87;;;615.60;;
3000;SDS011;1510;51.072;6.678;2023-08-31T00:35:18;672.10;;;631.53;;
3000;SDS011;1510;51.072;6.678;2023-08-31T00:37:48;674.87;;;634.43;;
3000;SDS011;1510;51.072;6.678;2023-08-31T00:40:16;701.27;;;658.63;;
3000;SDS011;1510;51.072;6.678;2023-08-31T00:42:43;722.80;;;678.27;;
3000;SDS011;1510;51.072;6.678;2023-08-31T00:45:10;730.67;;;681.97;;
3000;SDS011;1510;51.072;6.678;2023-08-31T00:47:38;783.77;;;732.97;;
3000;SDS011;1510;51.072;6.678;2023-08-31T00:50:05;776.10;;;725.40;;
3000;SDS011;1510;51.072;6.678;2023-08-31T00:52:33;791.10;;;738.67;;
3000;SDS011;1510;51.072;6.678;2023-08-31T00:55:01;789.53;;;737.27;;
3000;SDS011;1510;51.072;6.678;2023-08-31T00:57:31;791.47;;;738.80;;
3000;SDS011;1510;51.072;6.678;2023-08-31T00:59:58;801.40;;;749.50;;
3000;SDS011;1510;51.072;6.678;2023-08-31T01:02:29;817.77;;;763.60;;
3000;SDS011;1510;51.072;6.678;2023-08-31T01:05:02;806.57;;;753.80;;
3000;SDS011;1510;51.072;6.678;2023-08-31T01:07:37;805.43;;;751.70;;
3000;SDS011;1510;51.072;6.678;2023-08-31T01:10:14;851.37;;;793.13;;
3000;SDS011;1510;51.072;6.678;2023-08-31T01:12:50;839.40;;;782.27;;
3000;SDS011;1510;51.072;6.678;2023-08-31T01:15:20;851.80;;;794.03;;
3000;SDS011;1510;51.072;6.678;2023-08-31T01:17:50;849.20;;;789.40;;
3000;SDS011;1510;51.072;6.678;2023-08-31T01:20:19;842.83;;;783.47;;
3000;SDS011;1510;51.072;6.678;2023-08-31T01:22:55;849.70;;;790.50;;
3000;SDS011;1510;51.072;6.678;2023-08-31T01:25:27;853.43;;;794.77;;
3000;SDS011;1510;51.072;6.678;2023-08-31T01:27:56;860.27;;;800.07;;
3000;SDS011;1510;51.072;6.678;2023-08-31T01:30:24;851.40;;;792.60;;
3000;SDS011;1510;51.072;6.678;2023-08-31T01:32:51;864.43;;;804.17;;
3000;SDS011;1510;51.072;6.678;2023-08-31T01:35:18;865.33;;;804.47;;
3000;SDS011;1510;51.072;6.678;2023-08-31T01:37:47;851.73;;;790.90;;
3000;SDS011;1510;51.072;6.678;2023-08-31T01:40:17;858.33;;;797.47;;
3000;SDS011;1510;51.072;6.678;2023-08-31T01:42:51;875.67;;;814.87;;
3000;SDS011;1510;51.072;6.678;2023-08-31T01:45:19;884.97;;;822.57;;
3000;SDS011;1510;51.072;6.678;2023-08-31T01:47:48;865.97;;;804.17;;
3000;SDS011;1510;51.072;6.678;2023-08-31T01:50:16;858.67;;;799.03;;
3000;SDS011;1510;51.072;6.678;2023-08-31T01:52:42;865.47;;;805.07;;
3000;SDS011;1510;51.072;6.678;2023-08-31T01:55:09;854.10;;;795.03;;
3000;SDS011;1510;51.072;6.678;2023-08-31T01:57:38;853.83;;;795.43;;
3000;SDS011;1510;51.072;6.678;2023-08-31T02:00:08;848.17;;;790.00;;
3000;SDS011;1510;51.072;6.678;2023-08-31T02:02:36;861.00;;;802.77;;
3000;SDS011;1510;51.072;6.678;2023-08-31T02:05:03;869.80;;;810.83;;
3000;SDS011;1510;51.072;6.678;2023-08-31T02:07:31;862.23;;;803.83;;
3000;SDS011;1510;51.072;6.678;2023-08-31T02:09:58;867.97;;;809.50;;
3000;SDS011;1510;51.072;6.678;2023-08-31T02:12:25;878.20;;;818.90;;
3000;SDS011;1510;51.072;6.678;2023-08-31T02:14:52;871.57;;;812.73;;
3000;SDS011;1510;51.072;6.678;2023-08-31T02:17:20;851.90;;;794.90;;
3000;SDS011;1510;51.072;6.678;2023-08-31T02:19:47;866.00;;;807.93;;
3000;SDS011;1510;51.072;6.678;2023-08-31T02:22:14;867.50;;;809.50;;
3000;SDS011;1510;51.072;6.678;2023-08-31T02:24:41;859.10;;;801.60;;
3000;SDS011;1510;51.072;6.678;2023-08-31T02:27:08;859.27;;;801.70;;
3000;SDS011;1510;51.072;6.678;2023-08-31T02:29:34;863.73;;;806.17;;
3000;SDS011;1510;51.072;6.678;2023-08-31T02:32:03;857.53;;;799.43;;
3000;SDS011;1510;51.072;6.678;2023-08-31T02:34:32;865.13;;;808.10;;
3000;SDS011;1510;51.072;6.678;2023-08-31T02:36:59;850.13;;;793.87;;
3000;SDS011;1510;51.072;6.678;2023-08-31T02:39:26;849.57;;;793.67;;
3000;SDS011;1510;51.072;6.678;2023-08-31T02:41:53;849.17;;;793.13;;
3000;SDS011;1510;51.072;6.678;2023-08-31T02:44:20;841.83;;;786.00;;
3000;SDS011;1510;51.072;6.678;2023-08-31T02:46:46;858.80;;;802.83;;
3000;SDS011;1510;51.072;6.678;2023-08-31T02:49:13;835.47;;;779.97;;
3000;SDS011;1510;51.072;6.678;2023-08-31T02:51:42;858.00;;;802.20;;
3000;SDS011;1510;51.072;6.678;2023-08-31T02:54:09;833.73;;;779.37;;
3000;SDS011;1510;51.072;6.678;2023-08-31T02:56:36;836.23;;;781.67;;
3000;SDS011;1510;51.072;6.678;2023-08-31T02:59:02;848.53;;;792.03;;
3000;SDS011;1510;51.072;6.678;2023-08-31T03:01:29;864.10;;;806.40;;
3000;SDS011;1510;51.072;6.678;2023-08-31T03:03:56;873.30;;;812.40;;
3000;SDS011;1510;51.072;6.678;2023-08-31T03:06:23;859.37;;;799.77;;
3000;SDS011;1510;51.072;6.678;2023-08-31T03:08:53;845.40;;;786.80;;
3000;SDS011;1510;51.072;6.678;2023-08-31T03:11:20;842.80;;;785.40;;
3000;SDS011;1510;51.072;6.678;2023-08-31T03:13:46;841.37;;;784.43;;
3000;SDS011;1510;51.072;6.678;2023-08-31T03:16:13;848.57;;;790.10;;
3000;SDS011;1510;51.072;6.678;2023-08-31T03:18:41;821.73;;;766.27;;
3000;SDS011;1510;51.072;6.678;2023-08-31T03:21:08;781.67;;;730.60;;
3000;SDS011;1510;51.072;6.678;2023-08-31T03:23:35;760.00;;;711.83;;
3000;SDS011;1510;51.072;6.678;2023-08-31T03:26:07;726.67;;;682.17;;
3000;SDS011;1510;51.072;6.678;2023-08-31T03:28:34;704.03;;;662.97;;
3000;SDS011;1510;51.072;6.678;2023-08-31T03:31:03;671.37;;;634.10;;
3000;SDS011;1510;51.072;6.678;2023-08-31T03:33:30;659.03;;;622.47;;
3000;SDS011;1510;51.072;6.678;2023-08-31T03:35:59;577.30;;;547.80;;
3000;SDS011;1510;51.072;6.678;2023-08-31T03:38:29;541.90;;;514.87;;
3000;SDS011;1510;51.072;6.678;2023-08-31T03:40:56;551.07;;;524.33;;
3000;SDS011;1510;51.072;6.678;2023-08-31T03:43:25;533.27;;;507.50;;
3000;SDS011;1510;51.072;6.678;2023-08-31T03:45:55;583.73;;;555.57;;
3000;SDS011;1510;51.072;6.678;2023-08-31T03:48:22;604.27;;;574.07;;
3000;SDS011;1510;51.072;6.678;2023-08-31T03:50:50;635.30;;;603.50;;
3000;SDS011;1510;51.072;6.678;2023-08-31T03:53:17;668.50;;;634.00;;
3000;SDS011;1510;51.072;6.678;2023-08-31T03:55:44;699.33;;;661.07;;
3000;SDS011;1510;51.072;6.678;2023-08-31T03:58:11;714.23;;;674.60;;
3000;SDS011;1510;51.072;6.678;2023-08-31T04:00:39;720.50;;;679.97;;
3000;SDS011;1510;51.072;6.678;2023-08-31T04:03:07;721.47;;;678.90;;
3000;SDS011;1510;51.072;6.678;2023-08-31T04:05:35;757.70;;;712.30;;
3000;SDS011;1510;51.072;6.678;2023-08-31T04:08:02;758.37;;;713.00;;
3000;SDS011;1510;51.072;6.678;2023-08-31T04:10:30;766.23;;;719.17;;
3000;SDS011;1510;51.072;6.678;2023-08-31T04:12:57;771.87;;;724.67;;
3000;SDS011;1510;51.072;6.678;2023-08-31T04:15:24;793.97;;;743.83;;
3000;SDS011;1510;51.072;6.678;2023-08-31T04:17:53;802.43;;;750.70;;
3000;SDS011;1510;51.072;6.678;2023-08-31T04:20:20;806.77;;;754.10;;
3000;SDS011;1510;51.072;6.678;2023-08-31T04:22:47;804.80;;;753.10;;
3000;SDS011;1510;51.072;6.678;2023-08-31T04:25:14;822.10;;;768.23;;
3000;SDS011;1510;51.072;6.678;2023-08-31T04:27:41;792.00;;;739.40;;
3000;SDS011;1510;51.072;6.678;2023-08-31T04:30:09;805.00;;;751.30;;
3000;SDS011;1510;51.072;6.678;2023-08-31T04:32:36;805.53;;;752.20;;
3000;SDS011;1510;51.072;6.678;2023-08-31T04:35:05;827.33;;;772.13;;
3000;SDS011;1510;51.072;6.678;2023-08-31T04:37:32;812.60;;;758.57;;
3000;SDS011;1510;51.072;6.678;2023-08-31T04:39:59;838.67;;;783.30;;
3000;SDS011;1510;51.072;6.678;2023-08-31T04:42:26;830.17;;;774.50;;
3000;SDS011;1510;51.072;6.678;2023-08-31T04:44:53;845.43;;;787.57;;
3000;SDS011;1510;51.072;6.678;2023-08-31T04:47:19;851.43;;;792.40;;
3000;SDS011;1510;51.072;6.678;2023-08-31T04:49:49;866.57;;;805.77;;
3000;SDS011;1510;51.072;6.678;2023-08-31T04:52:17;863.13;;;801.47;;
3000;SDS011;1510;51.072;6.678;2023-08-31T04:54:44;880.90;;;818.07;;
3000;SDS011;1510;51.072;6.678;2023-08-31T04:57:10;878.83;;;814.90;;
3000;SDS011;1510;51.072;6.678;2023-08-31T04:59:37;876.63;;;812.00;;
3000;SDS011;1510;51.072;6.678;2023-08-31T05:02:04;865.03;;;801.60;;
3000;SDS011;1510;51.072;6.678;2023-08-31T05:04:31;866.90;;;802.30;;
3000;SDS011;1510;51.072;6.678;2023-08-31T05:06:58;876.87;;;811.20;;
3000;SDS011;1510;51.072;6.678;2023-08-31T05:09:26;872.33;;;806.83;;
3000;SDS011;1510;51.072;6.678;2023-08-31T05:11:57;861.83;;;796.83;;
3000;SDS011;1510;51.072;6.678;2023-08-31T05:14:24;859.07;;;793.73;;
3000;SDS011;1510;51.072;6.678;2023-08-31T05:16:51;861.83;;;796.53;;
3000;SDS011;1510;51.072;6.678;2023-08-31T05:19:18;855.53;;;790.17;;
3000;SDS011;1510;51.072;6.678;2023-08-31T05:21:45;855.00;;;790.07;;
3000;SDS011;1510;51.072;6.678;2023-08-31T05:24:12;862.33;;;796.70;;
3000;SDS011;1510;51.072;6.678;2023-08-31T05:26:40;855.57;;;790.07;;
3000;SDS011;1510;51.072;6.678;2023-08-31T05:29:07;857.27;;;792.30;;
3000;SDS011;1510;51.072;6.678;2023-08-31T05:31:34;842.20;;;777.40;;
3000;SDS011;1510;51.072;6.678;2023-08-31T05:34:01;851.50;;;786.07;;
3000;SDS011;1510;51.072;6.678;2023-08-31T05:36:28;871.87;;;806.30;;
3000;SDS011;1510;51.072;6.678;2023-08-31T05:38:55;860.77;;;796.10;;
3000;SDS011;1510;51.072;6.678;2023-08-31T05:41:21;870.10;;;805.80;;
3000;SDS011;1510;51.072;6.678;2023-08-31T05:43:50;870.23;;;806.07;;
3000;SDS011;1510;51.072;6.678;2023-08-31T05:46:17;866.30;;;802.80;;
3000;SDS011;1510;51.072;6.678;2023-08-31T05:48:44;858.83;;;794.70;;
3000;SDS011;1510;51.072;6.678;2023-08-31T05:51:11;853.37;;;789.40;;
3000;SDS011;1510;51.072;6.678;2023-08-31T05:53:38;861.07;;;799.17;;
3000;SDS011;1510;51.072;6.678;2023-08-31T05:56:05;847.97;;;787.93;;
3000;SDS011;1510;51.072;6.678;2023-08-31T05:58:32;820.93;;;763.27;;
3000;SDS011;1510;51.072;6.678;2023-08-31T06:01:01;832.07;;;774.30;;
3000;SDS011;1510;51.072;6.678;2023-08-31T06:03:29;814.17;;;758.73;;
3000;SDS011;1510;51.072;6.678;2023-08-31T06:05:56;800.83;;;746.37;;
3000;SDS011;1510;51.072;6.678;2023-08-31T06:08:24;786.63;;;734.00;;
3000;SDS011;1510;51.072;6.678;2023-08-31T06:10:51;787.37;;;736.07;;
3000;SDS011;1510;51.072;6.678;2023-08-31T06:13:18;761.43;;;713.10;;
3000;SDS011;1510;51.072;6.678;2023-08-31T06:15:45;733.17;;;687.37;;
3000;SDS011;1510;51.072;6.678;2023-08-31T06:18:13;675.17;;;635.83;;
3000;SDS011;1510;51.072;6.678;2023-08-31T06:20:40;649.63;;;612.33;;
3000;SDS011;1510;51.072;6.678;2023-08-31T06:23:07;657.07;;;620.53;;
3000;SDS011;1510;51.072;6.678;2023-08-31T06:25:37;643.47;;;608.33;;
3000;SDS011;1510;51.072;6.678;2023-08-31T06:28:04;662.40;;;625.77;;
3000;SDS011;1510;51.072;6.678;2023-08-31T06:30:33;642.47;;;607.87;;
3000;SDS011;1510;51.072;6.678;2023-08-31T06:33:00;602.47;;;570.77;;
3000;SDS011;1510;51.072;6.678;2023-08-31T06:35:28;536.57;;;510.47;;
3000;SDS011;1510;51.072;6.678;2023-08-31T06:37:56;475.90;;;453.37;;
3000;SDS011;1510;51.072;6.678;2023-08-31T06:40:23;499.53;;;475.37;;
3000;SDS011;1510;51.072;6.678;2023-08-31T06:42:50;488.80;;;465.97;;
3000;SDS011;1510;51.072;6.678;2023-08-31T06:45:17;409.43;;;391.40;;
3000;SDS011;1510;51.072;6.678;2023-08-31T06:47:44;405.63;;;388.03;;
3000;SDS011;1510;51.072;6.678;2023-08-31T06:50:11;331.57;;;317.07;;
3000;SDS011;1510;51.072;6.678;2023-08-31T06:52:39;267.53;;;256.73;;
3000;SDS011;1510;51.072;6.678;2023-08-31T06:55:07;308.17;;;295.93;;
3000;SDS011;1510;51.072;6.678;2023-08-31T06:57:35;290.13;;;278.43;;
3000;SDS011;1510;51.072;6.678;2023-08-31T07:00:03;241.00;;;231.83;;
3000;SDS011;1510;51.072;6.678;2023-08-31T07:02:31;260.90;;;251.17;;
3000;SDS011;1510;51.072;6.678;2023-08-31T07:04:59;172.93;;;166.47;;
3000;SDS011;1510;51.072;6.678;2023-08-31T07:07:26;215.57;;;207.67;;
3000;SDS011;1510;51.072;6.678;2023-08-31T07:09:54;221.70;;;213.17;;
3000;SDS011;1510;51.072;6.678;2023-08-31T07:12:21;137.67;;;132.63;;
3000;SDS011;1510;51.072;6.678;2023-08-31T07:14:48;110.63;;;106.73;;
3000;SDS011;1510;51.072;6.678;2023-08-31T07:17:17;90.53;;;86.93;;
3000;SDS011;1510;51.072;6.678;2023-08-31T07:19:44;99.03;;;94.73;;
3000;SDS011;1510;51.072;6.678;2023-08-31T07:22:11;109.57;;;105.63;;
3000;SDS011;1510;51.072;6.678;2023-08-31T07:24:38;115.07;;;110.67;;
3000;SDS011;1510;51.072;6.678;2023-08-31T07:27:07;71.40;;;67.90;;
3000;SDS011;1510;51.072;6.678;2023-08-31T07:29:34;52.97;;;50.27;;
3000;SDS011;1510;51.072;6.678;2023-08-31T07:32:01;53.40;;;51.20;;
3000;SDS011;1510;51.072;6.678;2023-08-31T07:34:28;59.20;;;56.60;;
3000;SDS011;1510;51.072;6.678;2023-08-31T07:36:56;41.53;;;39.63;;
3000;SDS011;1510;51.072;6.678;2023-08-31T07:39:23;29.43;;;27.80;;
3000;SDS011;1510;51.072;6.678;2023-08-31T07:41:50;23.37;;;21.93;;
3000;SDS011;1510;51.072;6.678;2023-08-31T07:44:18;31.13;;;29.33;;
3000;SDS011;1510;51.072;6.678;2023-08-31T07:46:45;15.37;;;13.77;;
3000;SDS011;1510;51.072;6.678;2023-08-31T07:49:12;10.37;;;9.53;;
3000;SDS011;1510;51.072;6.678;2023-08-31T07:51:38;12.83;;;7.93;;
3000;SDS011;1510;51.072;6.678;2023-08-31T07:54:05;9.50;;;6.10;;
3000;SDS011;1510;51.072;6.678;2023-08-31T07:56:32;7.50;;;4.87;;
3000;SDS011;1510;51.072;6.678;2023-08-31T07:58:59;8.93;;;4.83;;
3000;SDS011;1510;51.072;6.678;2023-08-31T08:01:28;10.00;;;3.80;;
3000;SDS011;1510;51.072;6.678;2023-08-31T08:03:55;10.90;;;3.77;;
3000;SDS011;1510;51.072;6.678;2023-08-31T08:06:21;7.67;;;4.00;;
3000;SDS011;1510;51.072;6.678;2023-08-31T08:08:48;7.10;;;3.00;;
3000;SDS011;1510;51.072;6.678;2023-08-31T08:11:15;10.13;;;3.87;;
3000;SDS011;1510;51.072;6.678;2023-08-31T08:13:42;5.30;;;3.30;;
3000;SDS011;1510;51.072;6.678;2023-08-31T08:16:09;6.27;;;2.80;;
3000;SDS011;1510;51.072;6.678;2023-08-31T08:18:37;5.10;;;2.60;;
3000;SDS011;1510;51.072;6.678;2023-08-31T08:21:04;6.63;;;3.20;;
3000;SDS011;1510;51.072;6.678;2023-08-31T08:23:31;8.50;;;2.50;;
3000;SDS011;1510;51.072;6.678;2023-08-31T08:25:59;8.07;;;3.20;;
3000;SDS011;1510;51.072;6.678;2023-08-31T08:28:27;5.10;;;2.10;;
3000;SDS011;1510;51.072;6.678;2023-08-31T08:30:54;6.93;;;2.00;;
3000;SDS011;1510;51.072;6.678;2023-08-31T08:33:21;8.10;;;2.47;;
3000;SDS011;1510;51.072;6.678;2023-08-31T08:35:49;7.80;;;2.60;;
3000;SDS011;1510;51.072;6.678;2023-08-31T08:38:16;9.03;;;2.97;;
3000;SDS011;1510;51.072;6.678;2023-08-31T08:40:43;6.70;;;2.20;;
3000;SDS011;1510;51.072;6.678;2023-08-31T08:43:10;10.80;;;2.90;;
3000;SDS011;1510;51.072;6.678;2023-08-31T08:45:38;12.43;;;2.60;;
3000;SDS011;1510;51.072;6.678;2023-08-31T08:48:06;11.60;;;2.83;;
3000;SDS011;1510;51.072;6.678;2023-08-31T08:50:35;5.37;;;2.40;;
3000;SDS011;1510;51.072;6.678;2023-08-31T08:53:04;9.57;;;2.17;;
3000;SDS011;1510;51.072;6.678;2023-08-31T08:55:31;9.77;;;2.40;;
3000;SDS011;1510;51.072;6.678;2023-08-31T08:57:59;7.03;;;2.60;;
3000;SDS011;1510;51.072;6.678;2023-08-31T09:00:26;9.93;;;2.40;;
3000;SDS011;1510;51.072;6.678;2023-08-31T09:02:54;5.77;;;2.13;;
3000;SDS011;1510;51.072;6.678;2023-08-31T09:05:21;9.60;;;3.07;;
3000;SDS011;1510;51.072;6.678;2023-08-31T09:08:01;8.00;;;2.77;;
3000;SDS011;1510;51.072;6.678;2023-08-31T09:10:38;9.77;;;1.90;;
3000;SDS011;1510;51.072;6.678;2023-08-31T09:13:06;6.50;;;2.10;;
3000;SDS011;1510;51.072;6.678;2023-08-31T09:15:40;8.53;;;2.30;;
3000;SDS011;1510;51.072;6.678;2023-08-31T09:18:13;7.03;;;2.20;;
3000;SDS011;1510;51.072;6.678;2023-08-31T09:20:44;7.30;;;3.20;;
3000;SDS011;1510;51.072;6.678;2023-08-31T09:23:16;7.67;;;2.70;;
3000;SDS011;1510;51.072;6.678;2023-08-31T09:25:43;5.90;;;2.30;;
3000;SDS011;1510;51.072;6.678;2023-08-31T09:28:11;10.43;;;3.47;;
3000;SDS011;1510;51.072;6.678;2023-08-31T09:30:39;8.53;;;3.03;;
3000;SDS011;1510;51.072;6.678;2023-08-31T09:33:06;8.27;;;2.43;;
3000;SDS011;1510;51.072;6.678;2023-08-31T09:35:35;9.53;;;2.67;;
3000;SDS011;1510;51.072;6.678;2023-08-31T09:38:07;9.13;;;3.00;;
3000;SDS011;1510;51.072;6.678;2023-08-31T09:40:36;7.30;;;2.53;;
3000;SDS011;1510;51.072;6.678;2023-08-31T09:43:04;11.03;;;3.07;;
3000;SDS011;1510;51.072;6.678;2023-08-31T09:45:31;13.00;;;2.83;;
3000;SDS011;1510;51.072;6.678;2023-08-31T09:48:00;6.90;;;2.57;;
3000;SDS011;1510;51.072;6.678;2023-08-31T09:50:29;8.50;;;2.60;;
3000;SDS011;1510;51.072;6.678;2023-08-31T09:52:59;8.67;;;2.90;;
3000;SDS011;1510;51.072;6.678;2023-08-31T09:55:29;9.33;;;2.77;;
3000;SDS011;1510;51.072;6.678;2023-08-31T09:57:59;9.17;;;2.60;;
3000;SDS011;1510;51.072;6.678;2023-08-31T10:00:28;7.53;;;2.27;;
3000;SDS011;1510;51.072;6.678;2023-08-31T10:02:57;10.00;;;3.00;;
3000;SDS011;1510;51.072;6.678;2023-08-31T10:05:26;8.93;;;3.10;;
3000;SDS011;1510;51.072;6.678;2023-08-31T10:07:53;10.50;;;3.53;;
3000;SDS011;1510;51.072;6.678;2023-08-31T10:10:21;8.70;;;3.00;;
3000;SDS011;1510;51.072;6.678;2023-08-31T10:12:52;7.50;;;2.57;;
3000;SDS011;1510;51.072;6.678;2023-08-31T10:15:21;7.77;;;2.93;;
3000;SDS011;1510;51.072;6.678;2023-08-31T10:17:49;5.60;;;2.30;;
3000;SDS011;1510;51.072;6.678;2023-08-31T10:20:16;7.20;;;2.67;;
3000;SDS011;1510;51.072;6.678;2023-08-31T10:22:44;7.27;;;2.00;;
3000;SDS011;1510;51.072;6.678;2023-08-31T10:25:11;7.20;;;2.53;;
3000;SDS011;1510;51.072;6.678;2023-08-31T10:27:39;11.43;;;2.37;;
3000;SDS011;1510;51.072;6.678;2023-08-31T10:30:13;12.73;;;2.73;;
3000;SDS011;1510;51.072;6.678;2023-08-31T10:35:49;7.67;;;2.10;;
3000;SDS011;1510;51.072;6.678;2023-08-31T10:38:17;5.80;;;2.00;;
3000;SDS011;1510;51.072;6.678;2023-08-31T10:41:00;6.77;;;2.30;;
3000;SDS011;1510;51.072;6.678;2023-08-31T10:43:46;8.13;;;2.50;;
3000;SDS011;1510;51.072;6.678;2023-08-31T10:46:24;7.67;;;2.53;;
3000;SDS011;1510;51.072;6.678;2023-08-31T10:48:55;7.50;;;2.57;;
3000;SDS011;1510;51.072;6.678;2023-08-31T10:51:27;9.93;;;2.83;;
3000;SDS011;1510;51.072;6.678;2023-08-31T10:54:07;6.47;;;2.63;;
3000;SDS011;1510;51.072;6.678;2023-08-31T10:59:19;5.70;;;1.90;;
3000;SDS011;1510;51.072;6.678;2023-08-31T11:01:57;7.20;;;2.37;;
3000;SDS011;1510;51.072;6.678;2023-08-31T11:04:27;9.40;;;3.20;;
3000;SDS011;1510;51.072;6.678;2023-08-31T11:07:13;6.43;;;2.53;;
3000;SDS011;1510;51.072;6.678;2023-08-31T11:09:42;11.43;;;3.50;;
3000;SDS011;1510;51.072;6.678;2023-08-31T11:12:10;10.83;;;2.80;;
3000;SDS011;1510;51.072;6.678;2023-08-31T11:14:37;7.90;;;2.40;;
3000;SDS011;1510;51.072;6.678;2023-08-31T11:17:05;10.03;;;2.90;;
3000;SDS011;1510;51.072;6.678;2023-08-31T11:19:33;10.50;;;2.63;;
3000;SDS011;1510;51.072;6.678;2023-08-31T11:22:00;7.07;;;2.80;;
3000;SDS011;1510;51.072;6.678;2023-08-31T11:24:28;7.03;;;2.10;;
3000;SDS011;1510;51.072;6.678;2023-08-31T11:26:55;10.00;;;2.30;;
3000;SDS011;1510;51.072;6.678;2023-08-31T11:29:22;7.27;;;1.87;;
3000;SDS011;1510;51.072;6.678;2023-08-31T11:31:49;9.20;;;2.50;;
3000;SDS011;1510;51.072;6.678;2023-08-31T11:34:18;6.77;;;2.30;;
3000;SDS011;1510;51.072;6.678;2023-08-31T11:36:45;6.77;;;2.00;;
3000;SDS011;1510;51.072;6.678;2023-08-31T11:39:13;7.73;;;2.53;;
3000;SDS011;1510;51.072;6.678;2023-08-31T11:41:40;7.63;;;1.93;;
3000;SDS011;1510;51.072;6.678;2023-08-31T11:44:09;7.67;;;1.83;;
3000;SDS011;1510;51.072;6.678;2023-08-31T11:46:37;8.73;;;2.20;;
3000;SDS011;1510;51.072;6.678;2023-08-31T11:49:05;12.43;;;2.27;;
3000;SDS011;1510;51.072;6.678;2023-08-31T11:51:34;8.23;;;2.40;;
3000;SDS011;1510;51.072;6.678;2023-08-31T11:54:02;5.50;;;1.63;;
3000;SDS011;1510;51.072;6.678;2023-08-31T11:56:39;8.00;;;1.70;;
3000;SDS011;1510;51.072;6.678;2023-08-31T11:59:08;8.23;;;2.30;;
3000;SDS011;1510;51.072;6.678;2023-08-31T12:01:37;7.07;;;2.37;;
3000;SDS011;1510;51.072;6.678;2023-08-31T12:04:09;7.23;;;2.27;;
3000;SDS011;1510;51.072;6.678;2023-08-31T12:06:39;8.10;;;2.63;;
3000;SDS011;1510;51.072;6.678;2023-08-31T12:09:07;6.43;;;1.93;;
3000;SDS011;1510;51.072;6.678;2023-08-31T12:11:34;6.30;;;2.33;;
3000;SDS011;1510;51.072;6.678;2023-08-31T12:14:01;6.50;;;2.27;;
3000;SDS011;1510;51.072;6.678;2023-08-31T12:16:33;7.93;;;1.83;;
3000;SDS011;1510;51.072;6.678;2023-08-31T12:19:01;7.17;;;2.03;;
3000;SDS011;1510;51.072;6.678;2023-08-31T12:21:30;6.57;;;1.83;;
3000;SDS011;1510;51.072;6.678;2023-08-31T12:23:59;5.80;;;2.30;;
3000;SDS011;1510;51.072;6.678;2023-08-31T12:26:26;7.43;;;2.80;;
3000;SDS011;1510;51.072;6.678;2023-08-31T12:28:53;9.37;;;2.90;;
3000;SDS011;1510;51.072;6.678;2023-08-31T12:31:21;10.80;;;2.80;;
3000;SDS011;1510;51.072;6.678;2023-08-31T12:33:49;11.10;;;2.87;;
3000;SDS011;1510;51.072;6.678;2023-08-31T12:36:16;7.50;;;3.13;;
3000;SDS011;1510;51.072;6.678;2023-08-31T12:38:42;7.57;;;2.33;;
3000;SDS011;1510;51.072;6.678;2023-08-31T12:41:11;7.60;;;3.27;;
3000;SDS011;1510;51.072;6.678;2023-08-31T12:43:38;7.63;;;2.60;;
3000;SDS011;1510;51.072;6.678;2023-08-31T12:46:05;10.43;;;2.47;;
3000;SDS011;1510;51.072;6.678;2023-08-31T12:48:32;10.03;;;3.00;;
3000;SDS011;1510;51.072;6.678;2023-08-31T12:50:59;9.50;;;2.73;;
3000;SDS011;1510;51.072;6.678;2023-08-31T12:53:28;8.63;;;2.73;;
3000;SDS011;1510;51.072;6.678;2023-08-31T12:55:54;6.93;;;2.33;;
3000;SDS011;1510;51.072;6.678;2023-08-31T12:58:23;10.27;;;3.00;;
3000;SDS011;1510;51.072;6.678;2023-08-31T13:00:49;6.70;;;2.33;;
3000;SDS011;1510;51.072;6.678;2023-08-31T13:03:18;7.63;;;2.70;;
3000;SDS011;1510;51.072;6.678;2023-08-31T13:05:45;6.33;;;2.70;;
3000;SDS011;1510;51.072;6.678;2023-08-31T13:08:13;8.10;;;2.50;;
3000;SDS011;1510;51.072;6.678;2023-08-31T13:10:40;6.63;;;2.37;;
3000;SDS011;1510;51.072;6.678;2023-08-31T13:13:07;8.87;;;2.83;;
3000;SDS011;1510;51.072;6.678;2023-08-31T13:15:35;6.80;;;2.10;;
3000;SDS011;1510;51.072;6.678;2023-08-31T13:18:03;8.23;;;2.37;;
3000;SDS011;1510;51.072;6.678;2023-08-31T13:20:30;11.90;;;2.57;;
3000;SDS011;1510;51.072;6.678;2023-08-31T13:22:57;9.03;;;2.00;;
3000;SDS011;1510;51.072;6.678;2023-08-31T13:25:24;7.20;;;3.10;;
3000;SDS011;1510;51.072;6.678;2023-08-31T13:27:51;11.20;;;2.70;;
3000;SDS011;1510;51.072;6.678;2023-08-31T13:30:18;9.03;;;2.87;;
3000;SDS011;1510;51.072;6.678;2023-08-31T13:32:46;7.67;;;2.63;;
3000;SDS011;1510;51.072;6.678;2023-08-31T13:35:15;8.23;;;2.70;;
3000;SDS011;1510;51.072;6.678;2023-08-31T13:37:42;11.17;;;2.63;;
3000;SDS011;1510;51.072;6.678;2023-08-31T13:40:09;7.23;;;2.30;;
3000;SDS011;1510;51.072;6.678;2023-08-31T13:42:48;8.20;;;3.37;;
3000;SDS011;1510;51.072;6.678;2023-08-31T13:45:22;8.60;;;3.13;;
3000;SDS011;1510;51.072;6.678;2023-08-31T13:47:50;10.10;;;2.40;;
3000;SDS011;1510;51.072;6.678;2023-08-31T13:50:17;8.63;;;2.90;;
3000;SDS011;1510;51.072;6.678;2023-08-31T13:52:44;9.40;;;3.20;;
3000;SDS011;1510;51.072;6.678;2023-08-31T13:55:11;9.20;;;4.50;;
3000;SDS011;1510;51.072;6.678;2023-08-31T13:57:40;9.90;;;3.67;;
3000;SDS011;1510;51.072;6.678;2023-08-31T14:00:08;10.37;;;2.67;;
3000;SDS011;1510;51.072;6.678;2023-08-31T14:02:36;14.80;;;2.87;;
3000;SDS011;1510;51.072;6.678;2023-08-31T14:05:05;11.17;;;4.03;;
3000;SDS011;1510;51.072;6.678;2023-08-31T14:07:34;6.33;;;2.10;;
3000;SDS011;1510;51.072;6.678;2023-08-31T14:10:01;8.00;;;3.70;;
3000;SDS011;1510;51.072;6.678;2023-08-31T14:12:28;5.77;;;2.27;;
3000;SDS011;1510;51.072;6.678;2023-08-31T14:14:55;7.37;;;2.67;;
3000;SDS011;1510;51.072;6.678;2023-08-31T14:17:22;6.07;;;1.93;;
3000;SDS011;1510;51.072;6.678;2023-08-31T14:19:49;6.10;;;2.53;;
3000;SDS011;1510;51.072;6.678;2023-08-31T14:22:18;6.77;;;2.10;;
3000;SDS011;1510;51.072;6.678;2023-08-31T14:24:44;7.80;;;2.37;;
3000;SDS011;1510;51.072;6.678;2023-08-31T14:27:11;11.03;;;2.60;;
3000;SDS011;1510;51.072;6.678;2023-08-31T14:29:38;8.43;;;3.00;;
3000;SDS011;1510;51.072;6.678;2023-08-31T14:32:05;8.00;;;2.60;;
3000;SDS011;1510;51.072;6.678;2023-08-31T14:34:32;7.93;;;2.83;;
3000;SDS011;1510;51.072;6.678;2023-08-31T14:36:59;8.13;;;2.93;;
3000;SDS011;1510;51.072;6.678;2023-08-31T14:39:30;7.50;;;3.10;;
3000;SDS011;1510;51.072;6.678;2023-08-31T14:41:57;6.03;;;2.70;;
3000;SDS011;1510;51.072;6.678;2023-08-31T14:44:24;9.60;;;2.73;;
3000;SDS011;1510;51.072;6.678;2023-08-31T14:46:52;6.40;;;2.80;;
3000;SDS011;1510;51.072;6.678;2023-08-31T14:49:22;8.80;;;3.80;;
3000;SDS011;1510;51.072;6.678;2023-08-31T14:51:50;7.73;;;2.73;;
3000;SDS011;1510;51.072;6.678;2023-08-31T14:54:17;9.82;;;3.45;;
3000;SDS011;1510;51.072;6.678;2023-08-31T14:56:45;10.00;;;2.20;;